createdAt,value
2023-06-14T00:00:16.687Z,33.37
2023-06-14T00:02:43.736Z,33.04
2023-06-14T00:05:13.326Z,33.21
2023-06-14T00:07:44.940Z,33.23
2023-06-14T00:10:13.090Z,33.40
2023-06-14T00:12:40.186Z,33.24
2023-06-14T00:15:08.346Z,33.47
2023-06-14T00:17:35.548Z,33.42
2023-06-14T00:20:05.949Z,33.87
2023-06-14T00:22:34.088Z,33.61
2023-06-14T00:25:08.243Z,34.17
2023-06-14T00:27:38.217Z,34.72
2023-06-14T00:30:05.435Z,34.84
2023-06-14T00:32:32.160Z,34.54
2023-06-14T00:34:59.214Z,34.69
2023-06-14T00:37:25.828Z,34.65
2023-06-14T00:39:52.704Z,34.74
2023-06-14T00:42:29.035Z,35.10
2023-06-14T00:44:56.491Z,35.14
2023-06-14T00:47:23.700Z,35.49
2023-06-14T00:49:54.601Z,35.05
2023-06-14T00:52:21.977Z,35.12
2023-06-14T00:54:48.585Z,35.08
2023-06-14T00:57:17.889Z,35.55
2023-06-14T00:59:46.898Z,35.66
2023-06-14T01:02:16.434Z,35.38
2023-06-14T01:04:46.802Z,35.84
2023-06-14T01:07:23.647Z,35.82
2023-06-14T01:10:22.344Z,35.69
2023-06-14T01:12:54.120Z,35.46
2023-06-14T01:15:22.533Z,35.42
2023-06-14T01:17:52.900Z,35.60
2023-06-14T01:20:23.068Z,35.71
2023-06-14T01:22:56.378Z,35.26
2023-06-14T01:25:24.758Z,35.32
2023-06-14T01:27:54.742Z,35.26
2023-06-14T01:30:23.904Z,35.76
2023-06-14T01:32:51.823Z,35.57
2023-06-14T01:35:19.288Z,35.55
2023-06-14T01:37:49.370Z,35.69
2023-06-14T01:40:17.913Z,35.14
2023-06-14T01:42:47.514Z,35.56
2023-06-14T01:45:15.766Z,35.71
2023-06-14T01:47:43.071Z,35.44
2023-06-14T01:50:10.231Z,35.31
2023-06-14T01:52:38.533Z,35.48
2023-06-14T01:55:06.502Z,35.47
2023-06-14T01:57:33.164Z,35.43
2023-06-14T01:59:59.782Z,36.04
2023-06-14T02:02:26.470Z,35.56
2023-06-14T02:04:53.548Z,35.83
2023-06-14T02:07:20.184Z,36.11
2023-06-14T02:09:46.825Z,36.10
2023-06-14T02:12:13.538Z,35.75
2023-06-14T02:14:40.380Z,35.77
2023-06-14T02:17:07.702Z,36.04
2023-06-14T02:19:34.678Z,36.02
2023-06-14T02:22:01.546Z,35.89
2023-06-14T02:24:28.590Z,36.33
2023-06-14T02:26:55.503Z,35.86
2023-06-14T02:29:22.308Z,35.81
2023-06-14T02:31:49.847Z,35.84
2023-06-14T02:34:19.068Z,36.04
2023-06-14T02:36:46.780Z,36.25
2023-06-14T02:39:13.999Z,36.24
2023-06-14T02:41:41.189Z,36.06
2023-06-14T02:44:08.151Z,36.06
2023-06-14T02:46:35.285Z,36.01
2023-06-14T02:49:02.042Z,35.93
2023-06-14T02:51:28.829Z,35.93
2023-06-14T02:53:55.532Z,36.01
2023-06-14T02:56:23.948Z,36.47
2023-06-14T02:58:50.577Z,36.07
2023-06-14T03:01:18.308Z,36.51
2023-06-14T03:03:45.163Z,36.34
2023-06-14T03:06:14.586Z,36.39
2023-06-14T03:08:42.898Z,36.48
2023-06-14T03:11:10.135Z,36.44
2023-06-14T03:13:36.807Z,36.29
2023-06-14T03:16:03.683Z,36.86
2023-06-14T03:18:36.780Z,36.44
2023-06-14T03:21:04.285Z,36.55
2023-06-14T03:23:31.284Z,36.72
2023-06-14T03:25:58.263Z,36.40
2023-06-14T03:28:24.878Z,36.83
2023-06-14T03:30:51.519Z,36.65
2023-06-14T03:33:18.253Z,36.42
2023-06-14T03:35:45.641Z,36.57
2023-06-14T03:38:12.261Z,37.08
2023-06-14T03:40:38.887Z,36.94
2023-06-14T03:43:05.672Z,37.07
2023-06-14T03:45:32.353Z,36.61
2023-06-14T03:47:59.794Z,36.84
2023-06-14T03:50:26.451Z,36.79
2023-06-14T03:52:53.696Z,37.21
2023-06-14T03:57:49.894Z,37.49
2023-06-14T04:00:17.013Z,37.24
2023-06-14T04:02:45.539Z,37.32
2023-06-14T04:05:12.775Z,37.04
2023-06-14T04:07:46.010Z,37.01
2023-06-14T04:10:14.557Z,37.46
2023-06-14T04:12:43.848Z,37.46
2023-06-14T04:15:20.862Z,36.75
2023-06-14T04:17:48.790Z,36.89
2023-06-14T04:20:15.649Z,36.48
2023-06-14T04:22:42.420Z,37.28
2023-06-14T04:25:09.337Z,37.46
2023-06-14T04:27:37.731Z,37.22
2023-06-14T04:30:04.916Z,37.16
2023-06-14T04:32:35.022Z,37.15
2023-06-14T04:35:05.060Z,36.84
2023-06-14T04:37:31.802Z,36.98
2023-06-14T04:39:59.591Z,37.13
2023-06-14T04:42:31.210Z,38.14
2023-06-14T04:44:58.495Z,37.35
2023-06-14T04:47:30.882Z,37.61
2023-06-14T04:50:01.899Z,37.50
2023-06-14T04:52:30.908Z,37.82
2023-06-14T04:54:57.866Z,37.65
2023-06-14T04:57:26.664Z,37.85
2023-06-14T04:59:56.795Z,37.01
2023-06-14T05:02:27.121Z,37.04
2023-06-14T05:04:54.865Z,37.62
2023-06-14T05:07:21.539Z,37.37
2023-06-14T05:09:48.147Z,37.26
2023-06-14T05:12:14.964Z,37.25
2023-06-14T05:14:41.561Z,37.39
2023-06-14T05:17:08.407Z,37.41
2023-06-14T05:19:35.060Z,37.22
2023-06-14T05:22:01.744Z,36.77
2023-06-14T05:24:29.789Z,36.77
2023-06-14T05:26:56.518Z,37.24
2023-06-14T05:29:23.279Z,37.06
2023-06-14T05:31:50.065Z,36.52
2023-06-14T05:34:16.716Z,36.88
2023-06-14T05:36:43.367Z,36.20
2023-06-14T05:39:10.618Z,36.21
2023-06-14T05:41:37.233Z,36.83
2023-06-14T05:44:03.974Z,36.82
2023-06-14T05:46:30.857Z,36.88
2023-06-14T05:48:57.655Z,36.97
2023-06-14T05:51:26.590Z,36.52
2023-06-14T05:53:53.949Z,36.61
2023-06-14T05:56:20.705Z,36.84
2023-06-14T05:58:48.028Z,36.51
2023-06-14T06:01:15.031Z,37.03
2023-06-14T06:03:42.807Z,36.57
2023-06-14T06:06:13.257Z,36.17
2023-06-14T06:08:40.154Z,36.25
2023-06-14T06:11:06.723Z,36.30
2023-06-14T06:13:33.907Z,36.04
2023-06-14T06:16:00.768Z,35.86
2023-06-14T06:18:27.445Z,35.93
2023-06-14T06:20:54.542Z,35.45
2023-06-14T06:23:21.653Z,35.48
2023-06-14T06:25:48.299Z,35.67
2023-06-14T06:28:14.900Z,35.25
2023-06-14T06:30:41.920Z,35.66
2023-06-14T06:33:08.757Z,35.50
2023-06-14T06:35:35.533Z,35.69
2023-06-14T06:38:02.446Z,36.00
2023-06-14T06:40:29.233Z,35.72
2023-06-14T06:42:56.141Z,35.95
2023-06-14T06:45:25.743Z,35.93
2023-06-14T06:47:53.140Z,35.62
2023-06-14T06:50:21.256Z,35.29
2023-06-14T06:52:48.161Z,35.28
2023-06-14T06:55:15.417Z,35.62
2023-06-14T06:57:42.359Z,35.72
2023-06-14T07:00:10.894Z,34.94
2023-06-14T07:02:38.270Z,34.35
2023-06-14T07:05:06.055Z,34.49
2023-06-14T07:07:33.070Z,34.32
2023-06-14T07:10:00.098Z,34.41
2023-06-14T07:12:27.022Z,33.99
2023-06-14T07:14:53.806Z,33.76
2023-06-14T07:17:20.672Z,33.30
2023-06-14T07:19:47.389Z,33.90
2023-06-14T07:22:14.090Z,33.84
2023-06-14T07:24:41.861Z,33.77
2023-06-14T07:27:09.226Z,33.10
2023-06-14T07:29:36.377Z,33.09
2023-06-14T07:32:03.063Z,33.19
2023-06-14T07:34:29.694Z,33.00
2023-06-14T07:36:56.814Z,33.21
2023-06-14T07:39:23.524Z,33.27
2023-06-14T07:41:50.473Z,33.37
2023-06-14T07:44:17.412Z,33.91
2023-06-14T07:46:44.594Z,33.34
2023-06-14T07:49:11.518Z,33.02
2023-06-14T07:51:39.145Z,32.64
2023-06-14T07:54:08.383Z,32.81
2023-06-14T07:56:35.136Z,32.50
2023-06-14T07:59:02.477Z,32.05
2023-06-14T08:01:29.405Z,32.78
2023-06-14T08:03:56.456Z,32.73
2023-06-14T08:06:23.633Z,32.68
2023-06-14T08:08:50.344Z,32.31
2023-06-14T08:11:17.374Z,32.82
2023-06-14T08:13:43.985Z,33.12
2023-06-14T08:16:10.837Z,32.79
2023-06-14T08:18:37.475Z,32.78
2023-06-14T08:21:04.210Z,32.88
2023-06-14T08:23:30.910Z,33.10
2023-06-14T08:25:57.656Z,32.78
2023-06-14T08:28:25.718Z,32.84
2023-06-14T08:30:52.421Z,33.17
2023-06-14T08:33:19.117Z,33.32
2023-06-14T08:35:46.374Z,33.52
2023-06-14T08:38:13.577Z,33.91
2023-06-14T08:40:43.661Z,33.84
2023-06-14T08:43:10.804Z,33.82
2023-06-14T08:45:37.809Z,33.37
2023-06-14T08:48:06.813Z,32.85
2023-06-14T08:50:35.809Z,33.10
2023-06-14T08:53:04.929Z,32.86
2023-06-14T08:55:37.148Z,32.72
2023-06-14T08:58:06.363Z,32.32
2023-06-14T09:00:34.728Z,33.27
2023-06-14T09:03:01.990Z,33.28
2023-06-14T09:05:29.818Z,32.73
2023-06-14T09:07:58.156Z,33.07
2023-06-14T09:10:29.055Z,33.16
2023-06-14T09:12:56.587Z,33.47
2023-06-14T09:15:23.694Z,33.85
2023-06-14T09:17:50.556Z,33.02
2023-06-14T09:20:20.564Z,33.29
2023-06-14T09:22:48.003Z,33.48
2023-06-14T09:25:33.312Z,33.10
2023-06-14T09:28:03.433Z,33.03
2023-06-14T09:30:30.128Z,32.37
2023-06-14T09:33:00.158Z,32.21
2023-06-14T09:35:30.916Z,31.90
2023-06-14T09:37:57.689Z,32.32
2023-06-14T09:40:24.715Z,31.85
2023-06-14T09:42:53.388Z,31.57
2023-06-14T09:45:23.096Z,31.54
2023-06-14T09:48:06.150Z,31.57
2023-06-14T09:50:34.642Z,30.98
2023-06-14T09:53:08.485Z,30.84
2023-06-14T09:55:39.653Z,30.55
2023-06-14T09:58:08.761Z,31.52
2023-06-14T10:00:36.481Z,31.16
2023-06-14T10:03:15.559Z,30.56
2023-06-14T10:05:48.214Z,31.16
2023-06-14T10:08:17.714Z,31.39
2023-06-14T10:10:45.543Z,31.47
2023-06-14T10:13:13.194Z,30.84
2023-06-14T10:15:53.376Z,30.14
2023-06-14T10:18:33.258Z,30.18
2023-06-14T10:21:27.798Z,30.44
2023-06-14T10:24:00.893Z,30.86
2023-06-14T10:26:28.039Z,31.27
2023-06-14T10:29:00.904Z,31.00
2023-06-14T10:31:47.175Z,30.90
2023-06-14T10:34:26.132Z,30.93
2023-06-14T10:37:04.144Z,31.05
2023-06-14T10:39:31.468Z,30.96
2023-06-14T10:41:59.093Z,30.53
2023-06-14T10:44:26.162Z,30.26
2023-06-14T10:46:56.687Z,30.39
2023-06-14T10:49:44.234Z,30.78
2023-06-14T10:52:18.285Z,29.86
2023-06-14T10:55:03.145Z,29.24
2023-06-14T10:57:29.801Z,28.69
2023-06-14T10:59:56.652Z,29.72
2023-06-14T11:02:23.333Z,30.19
2023-06-14T11:04:54.143Z,30.26
2023-06-14T11:07:23.701Z,30.47
2023-06-14T11:10:18.469Z,30.81
2023-06-14T11:12:49.083Z,30.39
2023-06-14T11:15:16.331Z,30.60
2023-06-14T11:17:54.639Z,30.45
2023-06-14T11:20:23.325Z,30.74
2023-06-14T11:22:51.191Z,30.28
2023-06-14T11:25:18.357Z,30.61
2023-06-14T11:27:46.077Z,30.86
2023-06-14T11:30:14.390Z,31.29
2023-06-14T11:32:42.062Z,31.34
2023-06-14T11:35:10.440Z,31.28
2023-06-14T11:37:38.405Z,31.35
2023-06-14T11:40:11.151Z,31.26
2023-06-14T11:42:38.550Z,31.05
2023-06-14T11:45:09.942Z,31.23
2023-06-14T11:47:38.123Z,31.78
2023-06-14T11:50:07.108Z,31.27
2023-06-14T11:52:34.112Z,31.33
2023-06-14T11:55:00.950Z,30.97
2023-06-14T11:57:27.568Z,31.51
2023-06-14T11:59:56.139Z,31.35
2023-06-14T12:02:25.184Z,31.49
2023-06-14T12:04:52.179Z,31.37
2023-06-14T12:07:21.352Z,31.07
2023-06-14T12:10:00.189Z,31.14
2023-06-14T12:12:26.950Z,31.19
2023-06-14T12:14:54.639Z,31.01
2023-06-14T12:17:21.543Z,31.27
2023-06-14T12:19:50.405Z,31.52
2023-06-14T12:22:18.266Z,31.66
2023-06-14T12:24:45.873Z,32.16
2023-06-14T12:27:17.189Z,31.76
2023-06-14T12:29:46.591Z,32.26
2023-06-14T12:32:13.441Z,31.40
2023-06-14T12:34:40.275Z,31.78
2023-06-14T12:37:07.777Z,32.08
2023-06-14T12:39:34.871Z,32.07
2023-06-14T12:42:01.849Z,32.43
2023-06-14T12:44:28.827Z,32.22
2023-06-14T12:46:56.054Z,32.55
2023-06-14T12:49:23.250Z,32.19
2023-06-14T12:51:49.855Z,32.21
2023-06-14T12:54:22.931Z,31.81
2023-06-14T12:56:56.252Z,31.69
2023-06-14T12:59:22.916Z,31.90
2023-06-14T13:01:51.940Z,31.66
2023-06-14T13:04:18.578Z,31.11
2023-06-14T13:09:19.329Z,31.80
2023-06-14T13:11:48.284Z,31.67
2023-06-14T13:14:25.193Z,31.73
2023-06-14T13:16:53.055Z,31.07
2023-06-14T13:19:19.841Z,31.47
2023-06-14T13:21:46.576Z,31.79
2023-06-14T13:24:13.410Z,31.83
2023-06-14T13:26:40.077Z,32.00
2023-06-14T13:29:06.718Z,31.75
2023-06-14T13:31:33.860Z,31.45
2023-06-14T13:34:00.528Z,31.83
2023-06-14T13:36:27.251Z,31.55
2023-06-14T13:38:55.998Z,31.60
2023-06-14T13:41:22.658Z,31.90
2023-06-14T13:43:49.322Z,31.37
2023-06-14T13:46:15.980Z,31.23
2023-06-14T13:48:42.888Z,31.76
2023-06-14T13:51:09.561Z,30.88
2023-06-14T13:53:37.391Z,30.92
2023-06-14T13:56:04.273Z,31.42
2023-06-14T13:58:30.907Z,31.87
2023-06-14T14:00:58.375Z,30.91
2023-06-14T14:03:25.874Z,31.10
2023-06-14T14:05:52.936Z,30.49
2023-06-14T14:08:19.549Z,30.44
2023-06-14T14:10:46.709Z,30.67
2023-06-14T14:13:13.809Z,30.43
2023-06-14T14:15:40.566Z,30.46
2023-06-14T14:18:07.503Z,30.44
2023-06-14T14:20:34.263Z,30.32
2023-06-14T14:23:01.397Z,30.47
2023-06-14T14:25:28.138Z,30.19
2023-06-14T14:27:55.071Z,30.63
2023-06-14T14:30:24.832Z,30.34
2023-06-14T14:32:52.704Z,30.27
2023-06-14T14:35:19.519Z,30.11
2023-06-14T14:37:46.443Z,30.61
2023-06-14T14:40:13.731Z,30.14
2023-06-14T14:42:40.725Z,30.20
2023-06-14T14:45:08.019Z,30.63
2023-06-14T14:47:34.789Z,30.29
2023-06-14T14:50:01.536Z,30.35
2023-06-14T14:52:28.279Z,30.38
2023-06-14T14:54:55.185Z,30.03
2023-06-14T14:57:23.202Z,29.91
2023-06-14T14:59:49.826Z,29.95
2023-06-14T15:02:16.980Z,30.25
2023-06-14T15:04:43.660Z,30.21
2023-06-14T15:07:10.622Z,30.49
2023-06-14T15:09:37.317Z,30.17
2023-06-14T15:12:04.356Z,30.34
2023-06-14T15:14:31.266Z,30.02
2023-06-14T15:16:59.346Z,30.31
2023-06-14T15:19:26.108Z,30.05
2023-06-14T15:21:52.740Z,30.06
2023-06-14T15:24:30.336Z,30.24
2023-06-14T15:27:05.237Z,30.12
2023-06-14T15:29:31.859Z,30.31
2023-06-14T15:31:59.382Z,30.29
2023-06-14T15:34:26.045Z,30.11
2023-06-14T15:36:52.729Z,30.16
2023-06-14T15:39:19.341Z,29.82
2023-06-14T15:41:46.037Z,30.27
2023-06-14T15:44:12.682Z,30.18
2023-06-14T15:46:39.370Z,30.35
2023-06-14T15:49:11.412Z,30.25
2023-06-14T15:51:38.451Z,29.67
2023-06-14T15:54:05.108Z,29.62
2023-06-14T15:56:31.845Z,29.99
2023-06-14T15:58:58.906Z,29.53
2023-06-14T16:01:25.635Z,29.60
2023-06-14T16:03:52.608Z,30.26
2023-06-14T16:06:19.322Z,29.36
2023-06-14T16:08:46.877Z,29.57
2023-06-14T16:11:13.494Z,29.51
2023-06-14T16:13:43.045Z,29.41
2023-06-14T16:16:11.195Z,29.11
2023-06-14T16:18:38.103Z,29.42
2023-06-14T16:21:07.236Z,29.08
2023-06-14T16:23:34.420Z,29.05
2023-06-14T16:26:01.082Z,29.10
2023-06-14T16:28:27.691Z,28.95
2023-06-14T16:30:54.364Z,29.24
2023-06-14T16:33:21.126Z,29.23
2023-06-14T16:35:48.287Z,28.72
2023-06-14T16:38:15.193Z,29.47
2023-06-14T16:40:41.884Z,29.50
2023-06-14T16:43:08.691Z,28.98
2023-06-14T16:45:35.409Z,28.98
2023-06-14T16:48:02.217Z,29.31
2023-06-14T16:50:28.991Z,28.94
2023-06-14T16:52:56.273Z,29.04
2023-06-14T16:55:23.020Z,28.88
2023-06-14T16:57:49.669Z,28.81
2023-06-14T17:00:17.027Z,28.83
2023-06-14T17:02:44.543Z,28.55
2023-06-14T17:05:11.241Z,28.66
2023-06-14T17:07:37.897Z,28.33
2023-06-14T17:10:05.359Z,28.59
2023-06-14T17:12:32.037Z,27.97
2023-06-14T17:14:58.669Z,27.42
2023-06-14T17:17:25.371Z,27.92
2023-06-14T17:19:53.607Z,27.99
2023-06-14T17:22:20.907Z,28.14
2023-06-14T17:24:47.691Z,28.18
2023-06-14T17:27:14.419Z,28.24
2023-06-14T17:29:41.065Z,28.82
2023-06-14T17:32:08.301Z,28.77
2023-06-14T17:34:35.688Z,28.98
2023-06-14T17:37:03.050Z,29.15
2023-06-14T17:39:32.468Z,28.79
2023-06-14T17:41:59.091Z,29.04
2023-06-14T17:44:25.985Z,29.40
2023-06-14T17:46:52.660Z,28.99
2023-06-14T17:49:24.450Z,29.46
2023-06-14T17:51:51.128Z,29.06
2023-06-14T17:54:18.165Z,28.60
2023-06-14T17:56:45.077Z,29.01
2023-06-14T17:59:11.804Z,29.17
2023-06-14T18:01:38.501Z,29.04
2023-06-14T18:04:05.604Z,29.09
2023-06-14T18:06:32.325Z,29.40
2023-06-14T18:08:59.376Z,28.96
2023-06-14T18:11:31.802Z,29.54
2023-06-14T18:13:59.568Z,29.34
2023-06-14T18:16:27.346Z,29.40
2023-06-14T18:18:55.114Z,29.46
2023-06-14T18:21:22.501Z,29.94
2023-06-14T18:23:54.686Z,30.04
2023-06-14T18:26:23.064Z,29.79
2023-06-14T18:28:50.329Z,30.64
2023-06-14T18:31:17.775Z,30.46
2023-06-14T18:33:44.848Z,30.49
2023-06-14T18:36:11.572Z,30.21
2023-06-14T18:38:38.244Z,30.10
2023-06-14T18:41:05.158Z,30.15
2023-06-14T18:43:34.680Z,30.47
2023-06-14T18:46:01.729Z,30.32
2023-06-14T18:48:28.511Z,30.67
2023-06-14T18:50:55.180Z,30.69
2023-06-14T18:53:22.585Z,30.56
2023-06-14T18:55:49.321Z,30.71
2023-06-14T18:58:17.546Z,31.15
2023-06-14T19:00:44.286Z,31.30
2023-06-14T19:03:11.166Z,31.22
2023-06-14T19:05:37.863Z,31.10
2023-06-14T19:08:04.693Z,31.27
2023-06-14T19:10:31.434Z,31.96
2023-06-14T19:12:58.150Z,32.43
2023-06-14T19:15:25.493Z,32.25
2023-06-14T19:17:56.596Z,32.30
2023-06-14T19:20:24.521Z,32.22
2023-06-14T19:22:51.146Z,32.80
2023-06-14T19:25:18.124Z,32.70
2023-06-14T19:27:49.148Z,32.54
2023-06-14T19:30:18.516Z,32.71
2023-06-14T19:32:45.982Z,33.03
2023-06-14T19:35:12.701Z,32.84
2023-06-14T19:37:40.862Z,32.90
2023-06-14T19:40:08.357Z,33.40
2023-06-14T19:42:35.520Z,33.11
2023-06-14T19:45:02.117Z,33.39
2023-06-14T19:47:28.786Z,33.17
2023-06-14T19:49:55.554Z,33.13
2023-06-14T19:52:24.587Z,33.56
2023-06-14T19:54:51.635Z,33.62
2023-06-14T19:57:18.883Z,33.44
2023-06-14T19:59:46.829Z,33.48
2023-06-14T20:02:13.499Z,33.90
2023-06-14T20:04:40.313Z,33.52
2023-06-14T20:07:07.763Z,33.75
2023-06-14T20:09:35.164Z,34.18
2023-06-14T20:12:02.600Z,33.85
2023-06-14T20:14:29.344Z,33.78
2023-06-14T20:16:57.157Z,34.04
2023-06-14T20:19:23.779Z,34.06
2023-06-14T20:21:50.833Z,34.20
2023-06-14T20:24:17.788Z,34.28
2023-06-14T20:26:44.729Z,34.62
2023-06-14T20:29:11.588Z,34.49
2023-06-14T20:31:38.393Z,34.58
2023-06-14T20:34:05.841Z,34.52
2023-06-14T20:36:33.423Z,34.68
2023-06-14T20:39:00.295Z,34.44
2023-06-14T20:41:27.284Z,34.90
2023-06-14T20:43:58.768Z,35.00
2023-06-14T20:46:29.488Z,34.56
2023-06-14T20:48:56.598Z,34.95
2023-06-14T20:51:23.349Z,35.02
2023-06-14T20:53:50.020Z,35.00
2023-06-14T20:56:17.146Z,35.14
2023-06-14T20:58:44.444Z,35.00
2023-06-14T21:01:11.340Z,34.95
2023-06-14T21:03:38.095Z,35.14
2023-06-14T21:06:06.830Z,35.54
2023-06-14T21:08:33.550Z,35.20
2023-06-14T21:11:00.463Z,35.52
2023-06-14T21:13:29.384Z,35.35
2023-06-14T21:15:56.144Z,35.46
2023-06-14T21:18:22.777Z,35.65
2023-06-14T21:20:51.210Z,35.52
2023-06-14T21:23:17.908Z,35.71
2023-06-14T21:25:44.710Z,35.44
2023-06-14T21:28:11.516Z,35.76
2023-06-14T21:30:38.152Z,35.93
2023-06-14T21:33:05.500Z,35.75
2023-06-14T21:35:32.437Z,35.97
2023-06-14T21:37:59.267Z,35.73
2023-06-14T21:40:26.194Z,35.95
2023-06-14T21:42:52.842Z,35.93
2023-06-14T21:45:19.593Z,36.31
2023-06-14T21:47:47.292Z,36.26
2023-06-14T21:50:14.290Z,36.23
2023-06-14T21:52:41.081Z,36.36
2023-06-14T21:55:08.064Z,36.41
2023-06-14T21:57:34.702Z,36.39
2023-06-14T22:00:01.445Z,36.28
2023-06-14T22:02:28.135Z,36.40
2023-06-14T22:04:55.065Z,36.67
2023-06-14T22:07:22.086Z,36.42
2023-06-14T22:09:50.088Z,36.83
2023-06-14T22:12:16.999Z,37.03
2023-06-14T22:14:47.977Z,36.76
2023-06-14T22:17:19.250Z,36.92
2023-06-14T22:19:51.659Z,36.89
2023-06-14T22:22:25.859Z,37.35
2023-06-14T22:24:54.020Z,37.30
2023-06-14T22:27:22.769Z,37.51
2023-06-14T22:29:50.432Z,37.75
2023-06-14T22:32:17.973Z,37.52
2023-06-14T22:34:45.392Z,37.86
2023-06-14T22:37:12.015Z,37.88
2023-06-14T22:39:38.756Z,38.06
2023-06-14T22:42:07.759Z,38.35
2023-06-14T22:44:35.606Z,38.44
2023-06-14T22:47:02.833Z,38.20
2023-06-14T22:49:32.217Z,38.68
2023-06-14T22:52:02.517Z,39.04
2023-06-14T22:54:33.340Z,39.26
2023-06-14T22:57:00.370Z,39.17
2023-06-14T22:59:28.882Z,39.50
2023-06-14T23:01:55.624Z,39.39
2023-06-14T23:04:23.936Z,39.34
2023-06-14T23:06:53.212Z,39.75
2023-06-14T23:09:21.147Z,40.07
2023-06-14T23:11:48.215Z,39.91
2023-06-14T23:14:15.252Z,39.83
2023-06-14T23:16:49.254Z,40.24
2023-06-14T23:19:18.757Z,39.87
2023-06-14T23:21:48.125Z,40.32
2023-06-14T23:24:15.815Z,40.27
2023-06-14T23:26:43.213Z,40.42
2023-06-14T23:29:09.913Z,40.68
2023-06-14T23:31:36.610Z,40.58
2023-06-14T23:34:03.313Z,40.77
2023-06-14T23:36:31.657Z,40.98
2023-06-14T23:39:01.264Z,40.62
2023-06-14T23:41:31.884Z,41.23
2023-06-14T23:44:01.488Z,40.98
2023-06-14T23:46:32.724Z,40.89
2023-06-14T23:49:01.048Z,41.00
2023-06-14T23:51:27.840Z,41.27
2023-06-14T23:53:56.205Z,41.40
2023-06-14T23:56:25.763Z,41.42
2023-06-14T23:58:53.696Z,41.48
